Thunder Bay Airport
CYQT : rendu visible

Aérodrome :











RETROUVEZ-NOUS SUR...

 
LOGIN :

S'inscrire | Disclaimer

   EN    FR    IT 

 









Légende :    VFR   VFR Marginal   IFR   IFR Intensif   IFR Très Intensif
Visi : 
Plafond : 
>= 8 km
>= 3000ft
5 à 8 km
1000 à 3000 ft
1500m à 5 km
500 à 1000 ft
800 à 1500m
200 à 500 ft
< 800m
< 200 ft
Symboles :   Orages  Brouillard  Fortes neiges  Fortes précipitations  Vent > 20 kt






- Altitude de l'aérodrome : 653 ft
- Code IATA : YQT


CYQT - Thunder Bay

DERNIER METAR :
  • 191500Z 30002KT 20SM OVC022 01/M00 A2975 RMK SC8 VIS W 10 SLP085

METARs EXPIRÉS :
  • 191435Z 27002KT 20SM OVC022 00/M00 A2975 RMK SC8 BR SLP085
  • 191400Z 34002KT 8SM -SN OVC020 M00/M01 A2973 RMK SC8 BR SLP081
  • 191348Z 00000KT 8SM -SN OVC020 M00/M01 A2974 RMK SC8 BR SLP082
  • 191330Z 00000KT 10SM VCSH OVC018 M00/M01 A2973 RMK SC8 VIS E 5 BR SLP081
  • 191300Z 00000KT 15SM -SN OVC018 M00/M01 A2973 RMK SC8 SLP080
  • 191238Z 00000KT 15SM -SN BKN018 OVC030 M01/M01 A2972 RMK SC5SC3 SLP076
  • 191236Z 00000KT 15SM BKN018 OVC030 M01/M01 A2972 RMK SC5SC3 SLP076
  • 191226Z 00000KT 12SM -SN BKN018 OVC031 M01/M01 A2972 RMK SC6SC2 SLP075

TAF TAF CYQT
Valide du 19 à 14h jusqu'au 20 à 02h UTC


191338Z 1914/2002 VRB03KT 5SM -SN BKN015 OVC030
TEMPO 1914/2002 P6SM NSW SCT015 OVC030
PROB30 1914/1916 4SM -FZDZ BR BKN006 OVC015 RMK NXT FCST BY 192000Z



MET'MAP, la Météo Aéronautique d'un coup d'oeil ! - Copyright ORBIFLY Décembre 2007 - Disclaimer

ORBIFLY MET'MAP TEAM :

Programmation & Développement : Alexandra Zaïnal
Conception & Développement : Baudouin d'Aumeries
Co-Programmation & Développement : Marc-Olivier Méhu
Soutien technique & logistique : Manuel Goepfert

Contact : metmap@orbifly.com




SOURCES & CREDITS :

   NOAA       Earth
Advisory